Langley Air Force Base Hampton US
ICAO: KLFI
IATA: LFI
Category: Large
Scheduled Services: No

Elevation: 11 ft
TransAlt. 18000 ft.

Airport Communications:
NORFOLK APP/DEP:124.9
ATIS:27.01
CLNC DEL:118.85
GND:121.7
NASA OPS:123.375
PMSV METRO:23.98
CNSOLIDATED CMD POST:25.125
PTD:141.75
TWR:125

KLFI Zoom In..

If you have problems with the map follow the link
https://www.worldairports.se/pages/airport.php?
ICAO=KLFI

Runways:

(A) RW 08 length 10002 ft width 150 ft
ILS 109.90 / hdg 78

(B) RW 26 length 10002 ft width 150 ft
ILS 109.90 / hdg 258

Location; KLFI
Day. 21 / Time. 18.56 Zulu
* Altimeter: 30.11
* Temperature: 13° c. 55.4°f.
* Wind from: 300° Speed 13 kn with Gusts up to 23 kn.
Dewpoint: 01° c.
Visibility: 9 Statute Miles.
Clouds: Clear (automated report).

KLFI 211856Z AUTO 30013G23KT 9SM CLR 13/01 A3011 RMK AO2 PK WND 30027/11 SLP203 T01320009 CHINO RWY08 $


Wind From 300°
Speed 13 kn.

 
 
jpsmedia.com for Web Design worldairports.se 2018   terms of use